Time;durP1;ratioP1;P1;durP2;ratioP2;P2;SDS_P1;SDS_P2;PMS_P1;PMS_P2;Temp;Humidity;BMP_temperature;BMP_pressure;BME280_temperature;BME280_humidity;BME280_pressure;Samples;Min_cycle;Max_cycle;Signal;HPM_P1;HPM_P2
2022/02/19 00:01:49;;;;;;;9.52;1.60;;;7.00;95.30;;;;;;5051176;28;20108;-83
2022/02/19 00:04:15;;;;;;;6.82;1.30;;;7.00;96.00;;;;;;5052246;28;20031;-83
2022/02/19 00:06:41;;;;;;;7.05;1.73;;;7.00;95.50;;;;;;5052316;28;20064;-83
2022/02/19 00:09:06;;;;;;;13.80;1.40;;;7.10;94.70;;;;;;5051056;28;20028;-82
2022/02/19 00:11:32;;;;;;;10.75;1.70;;;7.10;94.90;;;;;;5051695;28;20059;-83
2022/02/19 00:13:59;;;;;;;13.10;1.48;;;7.00;95.00;;;;;;5060557;28;20083;-83
2022/02/19 00:16:24;;;;;;;5.38;1.23;;;7.10;95.00;;;;;;5052099;28;20029;-82
2022/02/19 00:18:50;;;;;;;10.63;1.40;;;7.10;94.80;;;;;;5062312;28;20086;-81
2022/02/19 00:21:17;;;;;;;5.75;1.10;;;7.10;94.40;;;;;;5051955;28;20029;-77
2022/02/19 00:23:42;;;;;;;5.90;1.30;;;7.00;94.50;;;;;;5051547;28;20029;-81
2022/02/19 00:26:09;;;;;;;10.88;1.60;;;7.10;94.70;;;;;;5050682;28;20029;-84
2022/02/19 00:28:35;;;;;;;9.95;1.25;;;7.10;94.10;;;;;;5050895;28;20029;-82
2022/02/19 00:31:01;;;;;;;8.05;2.55;;;7.20;91.90;;;;;;5050975;28;20025;-82
2022/02/19 00:33:27;;;;;;;4.95;1.35;;;7.20;91.90;;;;;;5051656;28;20033;-82
2022/02/19 00:35:54;;;;;;;9.38;1.88;;;7.20;92.00;;;;;;5051411;28;20394;-82
2022/02/19 00:38:20;;;;;;;9.25;1.55;;;7.20;92.00;;;;;;5051958;28;20355;-81
2022/02/19 00:40:47;;;;;;;7.18;1.33;;;7.20;92.00;;;;;;5051176;28;20052;-75
2022/02/19 00:43:13;;;;;;;10.68;1.55;;;7.10;92.20;;;;;;5049669;28;20021;-82
2022/02/19 00:45:39;;;;;;;5.78;1.45;;;7.00;91.60;;;;;;5052306;28;20025;-81
2022/02/19 00:48:06;;;;;;;11.93;1.83;;;7.10;91.60;;;;;;5051163;28;20044;-81
2022/02/19 00:50:32;;;;;;;6.93;1.40;;;7.00;92.00;;;;;;5059110;28;20417;-82
2022/02/19 00:52:58;;;;;;;7.43;1.48;;;7.00;91.90;;;;;;5069766;28;20033;-76
2022/02/19 00:55:24;;;;;;;15.00;1.80;;;7.00;92.20;;;;;;5088931;28;20024;-77
2022/02/19 00:57:49;;;;;;;8.98;1.25;;;7.10;91.40;;;;;;5082095;28;20052;-74
2022/02/19 01:00:15;;;;;;;10.38;1.67;;;7.10;91.60;;;;;;5066574;28;20032;-79
2022/02/19 01:02:41;;;;;;;10.57;2.03;;;7.10;91.50;;;;;;5053996;28;20037;-80
2022/02/19 01:05:08;;;;;;;3.47;1.05;;;7.00;91.60;;;;;;5052055;28;20041;-79
2022/02/19 01:07:33;;;;;;;10.80;1.38;;;7.00;91.50;;;;;;5054343;28;20033;-79
2022/02/19 01:09:59;;;;;;;10.88;1.60;;;7.00;90.30;;;;;;5053444;28;20433;-80
2022/02/19 01:12:25;;;;;;;7.85;1.85;;;7.20;90.00;;;;;;5053993;28;20043;-81
2022/02/19 01:14:51;;;;;;;9.18;1.60;;;7.10;89.90;;;;;;5053530;28;20101;-77
2022/02/19 01:17:17;;;;;;;8.77;1.50;;;7.20;89.20;;;;;;5054128;28;20033;-81
2022/02/19 01:19:43;;;;;;;11.13;1.55;;;7.20;89.30;;;;;;5053666;28;20094;-81
2022/02/19 01:22:08;;;;;;;6.70;1.38;;;7.10;89.70;;;;;;5053334;28;20669;-81
2022/02/19 01:24:34;;;;;;;10.80;1.80;;;7.00;90.00;;;;;;5055855;28;20025;-81
2022/02/19 01:27:00;;;;;;;10.02;1.85;;;7.00;90.10;;;;;;5053214;28;20054;-81
2022/02/19 01:29:26;;;;;;;5.85;1.35;;;7.00;90.10;;;;;;5053890;28;20087;-82
2022/02/19 01:31:52;;;;;;;6.82;1.05;;;7.00;90.00;;;;;;5053041;28;20041;-81
2022/02/19 01:34:18;;;;;;;9.13;1.38;;;7.00;89.20;;;;;;5053832;28;20170;-81
2022/02/19 01:36:43;;;;;;;11.20;1.50;;;7.10;87.90;;;;;;5052494;28;20521;-81
2022/02/19 01:39:09;;;;;;;8.18;1.38;;;7.00;88.70;;;;;;5052916;28;20017;-81
2022/02/19 01:41:35;;;;;;;9.95;1.67;;;7.00;89.10;;;;;;5053862;28;20025;-80
2022/02/19 01:44:09;;;;;;;6.18;1.23;;;7.10;86.80;;;;;;5052410;28;20025;-80
2022/02/19 01:46:35;;;;;;;9.25;1.77;;;7.10;86.20;;;;;;5053881;28;20028;-81
2022/02/19 01:49:01;;;;;;;9.88;1.52;;;7.10;85.10;;;;;;5053340;28;20031;-80
2022/02/19 01:51:31;;;;;;;5.93;1.73;;;7.10;85.50;;;;;;5068377;28;20040;-80
2022/02/19 01:54:00;;;;;;;7.60;1.20;;;7.00;85.80;;;;;;5072077;28;20393;-80
2022/02/19 01:56:26;;;;;;;8.15;1.17;;;7.00;85.00;;;;;;5073353;28;20056;-80
2022/02/19 01:58:52;;;;;;;6.18;1.30;;;7.00;84.50;;;;;;5071443;28;20067;-74
2022/02/19 02:01:18;;;;;;;7.65;2.13;;;6.90;85.30;;;;;;5054738;28;20025;-81
2022/02/19 02:03:43;;;;;;;10.60;1.60;;;7.00;85.00;;;;;;5053999;28;20116;-80
2022/02/19 02:06:10;;;;;;;9.18;1.50;;;7.00;81.00;;;;;;5052918;28;20511;-80
2022/02/19 02:08:36;;;;;;;11.05;1.70;;;7.00;80.50;;;;;;5070260;28;20052;-81
2022/02/19 02:11:02;;;;;;;6.47;1.13;;;7.00;79.80;;;;;;5056358;28;20025;-81
2022/02/19 02:13:28;;;;;;;8.48;1.40;;;7.10;79.90;;;;;;5053844;28;20048;-81
2022/02/19 02:15:54;;;;;;;9.35;1.40;;;7.00;78.10;;;;;;5053469;28;20035;-81
2022/02/19 02:18:20;;;;;;;10.75;1.85;;;7.00;78.10;;;;;;5053495;28;20457;-81
2022/02/19 02:20:46;;;;;;;5.72;1.33;;;7.00;79.00;;;;;;5052906;28;20039;-81
2022/02/19 02:23:14;;;;;;;11.02;1.38;;;7.00;78.50;;;;;;5051918;28;20032;-80
2022/02/19 02:25:40;;;;;;;9.00;1.20;;;7.00;78.30;;;;;;5053091;28;20025;-80
2022/02/19 02:28:09;;;;;;;8.75;1.23;;;7.00;78.70;;;;;;5052231;28;20481;-80
2022/02/19 02:30:36;;;;;;;9.15;1.52;;;6.90;78.00;;;;;;5052985;28;20377;-81
2022/02/19 02:33:09;;;;;;;9.70;1.90;;;6.90;78.40;;;;;;5052239;28;20037;-81
2022/02/19 02:35:36;;;;;;;8.77;1.25;;;6.90;77.70;;;;;;5053920;28;20028;-80
2022/02/19 02:38:02;;;;;;;10.70;1.60;;;6.90;78.50;;;;;;5061064;28;20036;-79
2022/02/19 02:40:28;;;;;;;9.85;1.33;;;6.80;79.00;;;;;;5052337;28;20044;-79
2022/02/19 02:42:54;;;;;;;8.95;1.50;;;6.60;80.50;;;;;;5051766;28;20025;-77
2022/02/19 02:45:19;;;;;;;6.78;1.33;;;6.60;80.20;;;;;;5052451;28;20104;-80
2022/02/19 02:47:45;;;;;;;13.25;1.83;;;6.50;81.50;;;;;;5052308;28;20064;-79
2022/02/19 02:50:11;;;;;;;8.90;1.50;;;6.50;81.30;;;;;;5050974;28;20036;-80
2022/02/19 02:52:38;;;;;;;9.90;1.35;;;6.60;80.40;;;;;;5051960;28;20036;-82
2022/02/19 02:55:05;;;;;;;10.30;2.03;;;6.50;81.40;;;;;;5051877;28;20052;-83
2022/02/19 02:57:31;;;;;;;11.30;1.77;;;6.60;80.20;;;;;;5052031;28;20338;-83
2022/02/19 02:59:57;;;;;;;8.68;1.50;;;6.50;80.40;;;;;;5050595;28;20355;-80
2022/02/19 03:02:23;;;;;;;11.18;1.60;;;6.60;80.60;;;;;;5050558;28;20051;-80
2022/02/19 03:04:48;;;;;;;9.02;1.58;;;6.60;80.70;;;;;;5051308;28;20108;-83
2022/02/19 03:07:14;;;;;;;11.75;1.60;;;6.50;80.90;;;;;;5050031;28;20155;-80
2022/02/19 03:09:40;;;;;;;7.95;1.63;;;6.50;81.70;;;;;;5050564;28;20062;-79
2022/02/19 03:12:06;;;;;;;13.63;2.40;;;6.50;82.00;;;;;;5048912;28;20459;-78
2022/02/19 03:14:31;;;;;;;5.88;1.48;;;6.40;82.40;;;;;;5051009;28;20115;-78
2022/02/19 03:16:57;;;;;;;8.70;1.38;;;6.40;82.60;;;;;;5049463;28;20108;-79
2022/02/19 03:19:22;;;;;;;12.30;1.40;;;6.40;82.50;;;;;;5050917;28;20045;-79
2022/02/19 03:21:49;;;;;;;6.70;1.52;;;6.30;82.60;;;;;;5055373;28;20032;-79
2022/02/19 03:24:14;;;;;;;7.85;2.10;;;6.40;82.00;;;;;;5060725;28;20020;-76
2022/02/19 03:26:40;;;;;;;8.63;1.45;;;6.30;82.40;;;;;;5074710;28;20040;-78
2022/02/19 03:29:06;;;;;;;7.05;1.35;;;6.30;81.60;;;;;;5053740;28;20055;-79
2022/02/19 03:31:32;;;;;;;6.88;1.55;;;6.30;81.50;;;;;;5051511;28;20025;-79
2022/02/19 03:33:57;;;;;;;6.45;1.60;;;6.30;82.40;;;;;;5049770;28;20087;-78
2022/02/19 03:36:23;;;;;;;10.02;1.88;;;6.30;82.30;;;;;;5050441;28;20040;-79
2022/02/19 03:38:48;;;;;;;6.93;1.20;;;6.30;81.30;;;;;;5050209;28;20043;-79
2022/02/19 03:41:14;;;;;;;8.73;1.67;;;6.30;81.00;;;;;;5049554;28;20021;-78
2022/02/19 03:43:39;;;;;;;6.30;1.30;;;6.40;81.30;;;;;;5049578;28;20033;-80
2022/02/19 03:46:05;;;;;;;8.73;1.45;;;6.30;80.20;;;;;;5049151;28;20043;-80
2022/02/19 03:48:31;;;;;;;5.80;1.33;;;6.30;81.00;;;;;;5049871;28;20052;-78
2022/02/19 03:50:56;;;;;;;6.15;1.55;;;6.20;81.90;;;;;;5049359;28;20096;-77
2022/02/19 03:53:22;;;;;;;7.25;1.55;;;6.20;81.40;;;;;;5049682;28;20085;-79
2022/02/19 03:55:47;;;;;;;10.10;1.52;;;6.10;82.80;;;;;;5050449;28;20390;-79
2022/02/19 03:58:13;;;;;;;7.28;1.33;;;6.10;82.60;;;;;;5048665;28;20037;-78
2022/02/19 04:00:39;;;;;;;13.38;1.80;;;6.10;83.60;;;;;;5050112;28;20024;-79
2022/02/19 04:03:06;;;;;;;9.43;1.40;;;6.10;84.40;;;;;;5048758;28;20029;-79
2022/02/19 04:05:31;;;;;;;11.93;1.60;;;6.00;85.20;;;;;;5049833;28;20029;-78
2022/02/19 04:07:57;;;;;;;7.55;1.17;;;5.90;86.00;;;;;;5049296;28;20397;-80
2022/02/19 04:10:23;;;;;;;7.53;1.25;;;5.80;87.20;;;;;;5049721;28;20036;-80
2022/02/19 04:12:48;;;;;;;10.68;1.52;;;5.80;85.70;;;;;;5049442;28;20036;-80
2022/02/19 04:15:14;;;;;;;7.85;1.40;;;5.80;85.80;;;;;;5048637;28;20125;-79
2022/02/19 04:17:39;;;;;;;7.53;1.17;;;5.80;83.30;;;;;;5049351;28;20041;-80
2022/02/19 04:20:07;;;;;;;11.75;1.48;;;5.80;82.90;;;;;;5049029;28;20176;-81
2022/02/19 04:22:33;;;;;;;6.82;0.90;;;5.80;82.90;;;;;;5047823;28;20032;-81
2022/02/19 04:24:58;;;;;;;4.03;0.93;;;5.80;81.80;;;;;;5048770;28;20027;-81
2022/02/19 04:27:25;;;;;;;11.45;1.58;;;5.80;81.00;;;;;;5050186;28;20025;-80
2022/02/19 04:29:51;;;;;;;9.65;1.35;;;5.70;81.00;;;;;;5053659;28;20039;-75
2022/02/19 04:32:17;;;;;;;5.30;1.10;;;5.70;80.50;;;;;;5053509;28;20474;-80
2022/02/19 04:34:42;;;;;;;5.93;1.00;;;5.70;80.70;;;;;;5054015;28;20385;-80
2022/02/19 04:37:08;;;;;;;9.45;1.23;;;5.60;80.40;;;;;;5052919;28;20466;-79
2022/02/19 04:39:34;;;;;;;9.73;1.13;;;5.70;79.80;;;;;;5053229;28;20041;-80
2022/02/19 04:41:59;;;;;;;9.57;1.20;;;5.70;81.00;;;;;;5059969;28;20033;-80
2022/02/19 04:44:25;;;;;;;7.75;1.23;;;5.60;82.00;;;;;;5053213;28;20031;-81
2022/02/19 04:46:50;;;;;;;10.75;1.25;;;5.50;82.40;;;;;;5053681;28;20028;-81
2022/02/19 04:49:16;;;;;;;6.65;1.13;;;5.50;82.70;;;;;;5052910;28;20040;-81
2022/02/19 04:51:42;;;;;;;7.43;1.23;;;5.40;83.10;;;;;;5053257;28;20144;-79
2022/02/19 04:54:07;;;;;;;7.90;1.02;;;5.30;83.80;;;;;;5052847;28;20527;-80
2022/02/19 04:56:33;;;;;;;11.15;1.33;;;5.20;84.80;;;;;;5053285;28;20482;-80
2022/02/19 04:59:00;;;;;;;11.07;1.40;;;5.20;84.70;;;;;;5055176;28;20059;-80
2022/02/19 05:01:25;;;;;;;8.10;1.45;;;5.20;85.60;;;;;;5053258;28;20082;-80
2022/02/19 05:03:56;;;;;;;9.18;1.10;;;5.20;85.00;;;;;;5053417;28;20139;-74
2022/02/19 05:06:22;;;;;;;8.68;1.23;;;5.10;85.60;;;;;;5051773;28;20035;-78
2022/02/19 05:08:48;;;;;;;13.05;1.38;;;5.10;85.70;;;;;;5052917;28;20385;-80
2022/02/19 05:11:14;;;;;;;14.48;1.38;;;5.10;85.90;;;;;;5051822;28;20715;-80
2022/02/19 05:13:40;;;;;;;6.18;1.45;;;5.10;86.40;;;;;;5051560;28;20029;-79
2022/02/19 05:16:06;;;;;;;10.57;1.23;;;5.00;87.00;;;;;;5050812;28;20465;-79
2022/02/19 05:18:32;;;;;;;9.35;1.60;;;5.00;87.80;;;;;;5052600;28;20098;-77
2022/02/19 05:20:58;;;;;;;9.25;1.25;;;5.00;86.90;;;;;;5051498;28;20045;-79
2022/02/19 05:23:23;;;;;;;10.02;1.55;;;5.10;86.30;;;;;;5073497;28;20037;-80
2022/02/19 05:25:49;;;;;;;10.82;1.23;;;5.00;86.20;;;;;;5052073;28;20113;-80
2022/02/19 05:28:15;;;;;;;11.00;1.52;;;5.00;86.50;;;;;;5051731;28;20051;-80
2022/02/19 05:30:41;;;;;;;7.00;1.20;;;4.90;87.10;;;;;;5053399;28;20052;-79
2022/02/19 05:33:07;;;;;;;6.00;1.20;;;5.00;87.60;;;;;;5051018;28;20401;-80
2022/02/19 05:35:33;;;;;;;10.95;1.23;;;5.00;87.40;;;;;;5054414;28;20033;-81
2022/02/19 05:37:59;;;;;;;5.70;1.73;;;5.00;88.00;;;;;;5053947;28;20446;-80
2022/02/19 05:40:25;;;;;;;9.13;1.45;;;4.90;88.20;;;;;;5053371;28;20389;-82
2022/02/19 05:42:50;;;;;;;12.38;1.40;;;4.90;88.30;;;;;;5053785;28;20025;-82
2022/02/19 05:45:16;;;;;;;12.57;1.42;;;5.00;88.30;;;;;;5053306;28;20045;-84
2022/02/19 05:47:42;;;;;;;9.90;1.85;;;5.00;88.60;;;;;;5053489;28;20095;-82
2022/02/19 05:50:08;;;;;;;13.80;2.22;;;5.00;88.20;;;;;;5052386;28;20044;-80
2022/02/19 05:52:33;;;;;;;12.27;2.03;;;4.90;88.80;;;;;;5052775;28;20490;-81
2022/02/19 05:54:59;;;;;;;11.48;1.52;;;4.90;89.80;;;;;;5052021;28;20100;-77
2022/02/19 05:57:25;;;;;;;6.70;1.20;;;4.80;89.70;;;;;;5052896;28;20086;-78
2022/02/19 05:59:51;;;;;;;14.07;2.10;;;4.80;89.20;;;;;;5052714;28;20048;-78
2022/02/19 06:02:17;;;;;;;17.75;1.63;;;4.70;90.00;;;;;;5051724;28;20025;-79
2022/02/19 06:04:42;;;;;;;6.47;1.30;;;4.80;90.10;;;;;;5052758;28;20036;-83
2022/02/19 06:07:08;;;;;;;11.90;1.58;;;4.80;90.00;;;;;;5049088;28;20090;-82
2022/02/19 06:09:34;;;;;;;11.27;1.63;;;4.70;90.20;;;;;;5052349;28;20032;-78
2022/02/19 06:11:59;;;;;;;7.72;1.40;;;4.60;90.40;;;;;;5051205;28;20037;-85
2022/02/19 06:14:25;;;;;;;9.23;1.30;;;4.60;90.70;;;;;;5052208;28;20040;-80
2022/02/19 06:16:51;;;;;;;10.90;1.42;;;4.50;90.80;;;;;;5052966;28;20021;-85
2022/02/19 06:19:17;;;;;;;13.30;1.40;;;4.50;91.00;;;;;;5049930;28;20190;-77
2022/02/19 06:21:43;;;;;;;18.20;1.55;;;4.50;91.00;;;;;;5052065;28;20715;-78
2022/02/19 06:24:09;;;;;;;9.75;1.50;;;4.50;91.20;;;;;;5048937;28;20079;-81
2022/02/19 06:26:35;;;;;;;13.05;2.05;;;4.50;91.20;;;;;;5052530;28;20029;-76
2022/02/19 06:29:01;;;;;;;6.10;1.67;;;4.50;91.80;;;;;;5051559;28;20105;-86
2022/02/19 06:31:26;;;;;;;16.55;2.10;;;4.40;92.20;;;;;;5052500;28;20039;-77
2022/02/19 06:33:52;;;;;;;11.07;2.53;;;4.40;92.30;;;;;;5052717;28;20025;-82
2022/02/19 06:36:19;;;;;;;15.82;1.77;;;4.30;92.30;;;;;;5053247;28;20024;-81
2022/02/19 06:38:46;;;;;;;11.15;2.03;;;4.30;92.10;;;;;;5055422;28;20056;-85
2022/02/19 06:41:13;;;;;;;10.32;1.58;;;4.30;92.60;;;;;;5057425;28;20039;-84
2022/02/19 06:43:39;;;;;;;12.95;1.85;;;4.20;92.80;;;;;;5066026;28;20029;-84
2022/02/19 06:46:05;;;;;;;10.75;1.67;;;4.30;92.60;;;;;;5077519;28;20029;-82
2022/02/19 06:48:31;;;;;;;10.75;2.10;;;4.20;93.00;;;;;;5073092;28;20099;-84
2022/02/19 06:50:58;;;;;;;10.25;1.88;;;4.20;93.20;;;;;;5071976;28;20017;-71
2022/02/19 06:53:26;;;;;;;14.30;2.35;;;4.20;92.90;;;;;;5075359;28;20033;-84
2022/02/19 06:55:52;;;;;;;8.20;1.58;;;4.10;93.10;;;;;;5057678;28;20032;-84
2022/02/19 06:58:18;;;;;;;9.20;1.33;;;4.10;93.50;;;;;;5054074;28;20045;-84
2022/02/19 07:00:44;;;;;;;12.63;1.80;;;4.20;93.10;;;;;;5054054;28;20049;-85
2022/02/19 07:03:09;;;;;;;4.30;1.02;;;4.20;93.10;;;;;;5052494;28;20083;-78
2022/02/19 07:05:35;;;;;;;8.40;1.35;;;4.20;93.10;;;;;;5058080;28;20075;-85
2022/02/19 07:08:01;;;;;;;11.75;1.50;;;4.10;93.60;;;;;;5051642;28;20065;-83
2022/02/19 07:10:28;;;;;;;7.57;1.50;;;4.10;93.70;;;;;;5051802;28;20032;-85
2022/02/19 07:12:54;;;;;;;9.60;1.48;;;4.20;93.70;;;;;;5052580;28;20033;-84
2022/02/19 07:15:20;;;;;;;9.27;1.33;;;4.10;94.10;;;;;;5052543;28;20029;-84
2022/02/19 07:17:54;;;;;;;9.32;1.27;;;4.10;94.00;;;;;;5053191;28;20044;-85
2022/02/19 07:20:21;;;;;;;10.05;1.48;;;4.10;94.40;;;;;;5050778;28;20772;-85
2022/02/19 07:22:48;;;;;;;7.88;0.98;;;4.00;94.80;;;;;;5052912;28;20137;-85
2022/02/19 07:25:14;;;;;;;4.75;1.25;;;4.00;94.80;;;;;;5052209;28;20355;-84
2022/02/19 07:27:42;;;;;;;11.70;1.65;;;4.00;94.90;;;;;;5052985;28;20076;-84
2022/02/19 07:30:11;;;;;;;8.10;1.40;;;4.00;94.60;;;;;;5051983;28;20351;-76
2022/02/19 07:32:37;;;;;;;10.20;1.48;;;4.10;94.40;;;;;;5051299;28;20040;-76
2022/02/19 07:35:04;;;;;;;11.23;1.30;;;4.20;94.80;;;;;;5050845;28;20029;-76
2022/02/19 07:37:30;;;;;;;11.68;1.58;;;4.30;94.40;;;;;;5052240;28;20036;-78
2022/02/19 07:39:56;;;;;;;9.68;1.65;;;4.40;94.60;;;;;;5051730;28;20037;-72
2022/02/19 07:42:22;;;;;;;8.40;1.33;;;4.50;93.40;;;;;;5051091;28;20037;-80
2022/02/19 07:44:48;;;;;;;14.40;1.73;;;4.70;93.30;;;;;;5052242;28;20124;-79
2022/02/19 07:47:27;;;;;;;15.77;1.50;;;4.80;92.80;;;;;;5051182;28;20048;-78
2022/02/19 07:58:19;;;;;;;10.27;1.50;;;5.10;92.30;;;;;;5032785;28;20060;-79
2022/02/19 08:00:50;;;;;;;14.02;2.05;;;5.20;91.50;;;;;;5052241;28;20032;-78
2022/02/19 08:03:17;;;;;;;9.93;2.00;;;5.50;90.90;;;;;;5050222;28;20143;-77
2022/02/19 08:05:43;;;;;;;13.18;2.65;;;5.50;90.90;;;;;;5051855;28;20033;-79
2022/02/19 08:08:10;;;;;;;17.67;2.10;;;5.60;91.50;;;;;;5050351;28;20016;-79
2022/02/19 08:10:37;;;;;;;18.88;4.57;;;5.70;90.30;;;;;;5050658;28;20025;-79
2022/02/19 08:13:09;;;;;;;8.30;1.83;;;5.70;90.40;;;;;;5050759;28;20065;-72
2022/02/19 08:15:36;;;;;;;10.27;1.42;;;5.80;90.10;;;;;;5050803;28;20119;-85
2022/02/19 08:18:06;;;;;;;6.93;1.00;;;5.80;89.80;;;;;;5050398;28;20447;-73
2022/02/19 08:20:37;;;;;;;5.78;1.23;;;5.80;89.60;;;;;;5051547;28;20041;-77
2022/02/19 08:23:04;;;;;;;13.23;1.60;;;5.80;90.20;;;;;;5050982;28;20029;-71
2022/02/19 08:25:30;;;;;;;7.57;1.20;;;5.80;90.30;;;;;;5051698;28;20029;-80
2022/02/19 08:27:56;;;;;;;7.60;1.50;;;5.90;89.20;;;;;;5061233;28;20025;-74
2022/02/19 08:30:22;;;;;;;8.50;1.40;;;5.90;88.60;;;;;;5052187;28;20029;-87
2022/02/19 08:32:48;;;;;;;13.88;1.55;;;5.90;87.80;;;;;;5051146;28;20024;-74
2022/02/19 08:35:15;;;;;;;9.55;1.55;;;5.90;86.30;;;;;;5050728;28;20029;-76
2022/02/19 08:37:40;;;;;;;7.35;1.65;;;6.00;86.30;;;;;;5050951;28;20033;-77
2022/02/19 08:40:11;;;;;;;8.43;2.13;;;5.90;87.20;;;;;;5050680;28;20025;-76
2022/02/19 08:42:37;;;;;;;;;;;5.90;87.90;;;;;;5051199;28;20040;-77
2022/02/19 08:45:04;;;;;;;10.52;1.50;;;6.00;85.80;;;;;;5050642;28;19905;-72
2022/02/19 08:47:30;;;;;;;16.23;1.88;;;6.00;86.40;;;;;;5052404;28;20025;-82
2022/02/19 08:49:56;;;;;;;12.23;1.73;;;6.10;85.80;;;;;;5052918;28;20393;-85
2022/02/19 08:52:22;;;;;;;8.93;1.50;;;6.20;85.20;;;;;;5051348;28;20504;-78
2022/02/19 08:54:47;;;;;;;15.13;1.95;;;6.30;84.90;;;;;;5052358;28;20029;-84
2022/02/19 08:57:13;;;;;;;11.13;1.30;;;6.20;83.80;;;;;;5050798;28;20041;-79
2022/02/19 08:59:39;;;;;;;7.93;1.58;;;6.30;83.90;;;;;;5051878;28;20103;-86
2022/02/19 09:02:04;;;;;;;7.57;1.42;;;6.30;84.70;;;;;;5051105;28;20025;-76
2022/02/19 09:04:30;;;;;;;8.23;2.25;;;6.30;83.20;;;;;;5051129;28;20025;-84
2022/02/19 09:06:56;;;;;;;8.40;1.63;;;6.40;83.80;;;;;;5051251;28;20374;-84
2022/02/19 09:09:21;;;;;;;10.48;1.50;;;6.50;82.80;;;;;;5051151;28;20109;-82
2022/02/19 09:11:47;;;;;;;5.38;1.13;;;6.60;81.40;;;;;;5052060;28;20056;-87
2022/02/19 09:14:12;;;;;;;10.73;1.55;;;6.60;80.40;;;;;;5052157;28;20060;-86
2022/02/19 09:16:38;;;;;;;10.98;2.10;;;6.70;79.60;;;;;;5056591;28;20107;-84
2022/02/19 09:19:05;;;;;;;13.30;1.58;;;6.70;79.70;;;;;;5055717;28;20033;-77
2022/02/19 09:21:31;;;;;;;8.60;1.27;;;6.70;79.80;;;;;;5038131;28;20042;-88
2022/02/19 09:23:57;;;;;;;10.77;1.90;;;6.70;80.00;;;;;;5049402;28;20474;-85
2022/02/19 09:26:24;;;;;;;11.20;2.25;;;6.80;79.10;;;;;;5056410;28;20167;-82
2022/02/19 09:28:50;;;;;;;18.65;2.03;;;6.80;79.40;;;;;;5055385;28;20374;-83
2022/02/19 09:31:16;;;;;;;13.77;1.92;;;6.80;78.60;;;;;;5053658;28;20024;-84
2022/02/19 09:33:42;;;;;;;22.52;2.25;;;6.80;76.10;;;;;;5055093;28;20565;-86
2022/02/19 09:36:08;;;;;;;6.82;1.20;;;6.80;77.00;;;;;;5055491;28;20098;-84
2022/02/19 09:38:34;;;;;;;8.43;1.55;;;6.70;77.10;;;;;;5054388;28;20067;-84
2022/02/19 09:41:02;;;;;;;13.43;1.48;;;6.70;77.60;;;;;;5054833;28;20029;-85
2022/02/19 09:43:28;;;;;;;5.70;1.48;;;6.70;78.10;;;;;;5053946;28;20029;-83
2022/02/19 09:45:54;;;;;;;9.60;1.45;;;6.80;76.40;;;;;;5054138;28;20378;-81
2022/02/19 09:48:20;;;;;;;8.48;1.08;;;6.80;75.70;;;;;;5054293;28;20037;-84
2022/02/19 09:50:48;;;;;;;7.22;1.30;;;6.80;75.80;;;;;;5055704;28;20032;-88
2022/02/19 09:53:14;;;;;;;9.65;1.52;;;6.90;74.70;;;;;;5051648;28;20033;-78
2022/02/19 09:55:41;;;;;;;6.20;0.93;;;6.90;74.30;;;;;;5045923;28;20060;-85
2022/02/19 09:58:07;;;;;;;7.95;1.40;;;6.90;74.90;;;;;;5044611;28;20413;-86
2022/02/19 10:00:45;;;;;;;6.45;1.20;;;7.00;75.20;;;;;;5052740;28;20025;-85
2022/02/19 10:03:12;;;;;;;7.13;1.40;;;7.20;74.70;;;;;;5053444;28;20037;-84
2022/02/19 10:05:38;;;;;;;7.47;1.55;;;7.20;74.60;;;;;;5053968;28;20063;-81
2022/02/19 10:08:06;;;;;;;11.45;1.58;;;7.30;74.60;;;;;;5053548;28;20049;-75
2022/02/19 10:10:52;;;;;;;9.32;1.67;;;7.30;73.80;;;;;;5053361;28;20509;-83
2022/02/19 10:13:38;;;;;;;8.07;1.63;;;7.50;72.70;;;;;;5033816;28;20037;-86
2022/02/19 10:16:05;;;;;;;11.10;1.45;;;7.60;71.20;;;;;;5053488;28;20123;-74
2022/02/19 10:18:43;;;;;;;8.48;1.48;;;7.70;70.90;;;;;;5047707;28;20091;-79
2022/02/19 10:21:24;;;;;;;10.13;1.50;;;7.70;70.50;;;;;;5034793;28;20025;-78
2022/02/19 10:23:56;;;;;;;6.72;1.30;;;7.70;69.80;;;;;;5046985;28;20381;-81
2022/02/19 10:26:25;;;;;;;8.52;1.60;;;7.60;70.30;;;;;;5052764;28;20021;-76
2022/02/19 10:29:05;;;;;;;12.68;2.00;;;7.70;70.50;;;;;;5059944;28;20048;-83
2022/02/19 10:31:32;;;;;;;4.95;1.20;;;7.80;71.20;;;;;;5062229;28;20079;-82
2022/02/19 10:34:16;;;;;;;11.45;2.00;;;7.90;69.50;;;;;;5068744;28;20029;-77
2022/02/19 10:36:56;;;;;;;7.55;1.25;;;7.80;69.30;;;;;;5053789;28;20041;-81
2022/02/19 10:39:27;;;;;;;9.97;1.77;;;7.70;69.50;;;;;;5040005;28;20052;-79
2022/02/19 10:41:56;;;;;;;8.60;1.50;;;7.60;70.30;;;;;;5033683;28;20036;-80
2022/02/19 10:44:24;;;;;;;5.35;1.35;;;7.50;70.50;;;;;;5044813;28;20024;-78
2022/02/19 10:46:52;;;;;;;6.85;1.23;;;7.50;71.00;;;;;;5033321;28;20065;-77
2022/02/19 10:49:17;;;;;;;9.48;1.80;;;7.50;70.40;;;;;;5032467;28;20080;-77
2022/02/19 10:51:44;;;;;;;7.00;1.10;;;7.60;70.20;;;;;;5040948;28;20029;-78
2022/02/19 10:54:12;;;;;;;6.72;1.35;;;7.80;68.40;;;;;;5047139;28;20036;-77
2022/02/19 10:56:38;;;;;;;8.90;1.30;;;7.90;67.60;;;;;;5052556;28;20033;-79
2022/02/19 10:59:09;;;;;;;7.50;1.42;;;8.00;67.40;;;;;;5052911;28;20031;-72
2022/02/19 11:01:43;;;;;;;9.20;1.10;;;8.20;66.70;;;;;;5052601;28;20021;-77
2022/02/19 11:04:11;;;;;;;8.57;1.38;;;8.30;67.30;;;;;;5051033;28;20037;-76
2022/02/19 11:06:37;;;;;;;4.60;1.10;;;8.40;65.70;;;;;;5034918;28;20046;-77
2022/02/19 11:09:05;;;;;;;5.03;1.30;;;8.50;65.00;;;;;;5042455;28;20035;-75
2022/02/19 11:11:39;;;;;;;10.90;1.42;;;8.50;64.80;;;;;;5051569;28;20029;-77
2022/02/19 11:14:06;;;;;;;6.15;1.10;;;8.50;64.70;;;;;;5050844;28;20037;-72
2022/02/19 11:16:32;;;;;;;4.85;1.15;;;8.40;65.30;;;;;;5051807;28;20378;-78
2022/02/19 11:18:59;;;;;;;6.85;1.30;;;8.50;64.70;;;;;;5052092;28;20136;-78
2022/02/19 11:21:26;;;;;;;8.63;1.95;;;8.70;63.90;;;;;;5051026;28;20035;-78
2022/02/19 11:23:56;;;;;;;5.00;2.00;;;8.80;63.50;;;;;;5035584;28;20029;-79
2022/02/19 11:26:26;;;;;;;5.25;1.00;;;9.00;61.50;;;;;;5051057;28;20025;-78
2022/02/19 11:28:56;;;;;;;5.80;1.02;;;9.10;61.20;;;;;;5052253;28;20033;-78
2022/02/19 11:31:30;;;;;;;8.85;1.35;;;9.20;60.90;;;;;;5050618;28;20035;-79
2022/02/19 11:34:00;;;;;;;4.38;1.10;;;9.20;60.30;;;;;;5051282;28;20458;-78
2022/02/19 11:36:28;;;;;;;4.47;1.02;;;9.10;60.70;;;;;;5051404;28;20036;-78
2022/02/19 11:38:54;;;;;;;6.03;1.00;;;9.10;61.30;;;;;;5051372;28;20467;-78
2022/02/19 11:41:42;;;;;;;6.70;1.15;;;9.10;60.90;;;;;;5051000;28;20029;-78
2022/02/19 11:44:19;;;;;;;5.75;1.52;;;9.20;60.40;;;;;;5050647;28;20060;-74
2022/02/19 11:46:46;;;;;;;4.93;1.20;;;9.20;60.50;;;;;;5035199;28;20033;-78
2022/02/19 11:49:20;;;;;;;8.40;1.30;;;9.30;60.40;;;;;;5031527;28;20037;-76
2022/02/19 11:52:06;;;;;;;5.28;2.10;;;9.50;59.80;;;;;;5031793;28;20030;-78
2022/02/19 11:54:33;;;;;;;4.45;1.05;;;9.80;58.50;;;;;;5041682;28;20036;-77
2022/02/19 11:57:13;;;;;;;8.63;1.65;;;10.10;58.10;;;;;;5039966;28;20049;-77
2022/02/19 11:59:47;;;;;;;4.15;1.08;;;10.00;59.60;;;;;;5037575;28;20086;-77
2022/02/19 12:02:15;;;;;;;4.57;0.90;;;9.70;60.10;;;;;;5050763;28;20032;-77
2022/02/19 12:04:42;;;;;;;5.82;1.33;;;9.60;61.40;;;;;;5051777;28;20095;-77
2022/02/19 12:07:07;;;;;;;6.28;1.40;;;9.60;60.20;;;;;;5051359;28;20441;-73
2022/02/19 12:09:53;;;;;;;5.75;1.08;;;9.40;61.10;;;;;;5051561;28;20060;-78
2022/02/19 12:12:19;;;;;;;4.65;1.13;;;9.40;60.10;;;;;;5049189;28;20382;-78
2022/02/19 12:14:49;;;;;;;8.57;1.30;;;9.60;60.50;;;;;;5051399;28;20037;-78
2022/02/19 12:17:17;;;;;;;10.57;1.15;;;9.70;59.70;;;;;;5050810;28;20021;-77
2022/02/19 12:19:52;;;;;;;5.30;1.40;;;9.90;59.60;;;;;;5051416;28;20064;-77
2022/02/19 12:22:33;;;;;;;8.40;1.25;;;9.80;58.70;;;;;;5050356;28;20421;-78
2022/02/19 12:25:00;;;;;;;7.75;1.52;;;9.80;58.80;;;;;;5050697;28;20027;-78
2022/02/19 12:27:26;;;;;;;4.72;1.15;;;10.00;57.30;;;;;;5050496;28;20033;-78
2022/02/19 12:30:15;;;;;;;4.30;1.10;;;10.00;56.50;;;;;;5051283;28;20504;-79
2022/02/19 12:32:45;;;;;;;3.83;1.20;;;10.30;55.60;;;;;;5050834;28;20033;-78
2022/02/19 12:35:11;;;;;;;;;;;10.40;54.50;;;;;;5030422;28;20091;-73
2022/02/19 12:37:37;;;;;;;2.53;0.98;;;10.60;53.70;;;;;;5031943;28;19905;-78
2022/02/19 12:40:04;;;;;;;3.58;0.85;;;10.70;54.00;;;;;;5031571;28;20030;-79
2022/02/19 12:42:31;;;;;;;6.50;1.13;;;10.80;52.60;;;;;;5029780;28;20021;-78
2022/02/19 12:45:08;;;;;;;3.30;0.95;;;10.80;53.30;;;;;;5051172;28;20037;-78
2022/02/19 12:47:35;;;;;;;8.30;1.50;;;10.70;52.80;;;;;;5049994;28;20037;-81
2022/02/19 12:50:02;;;;;;;6.43;1.33;;;10.70;53.30;;;;;;5054040;28;20427;-77
2022/02/19 12:52:28;;;;;;;4.30;1.15;;;10.70;53.10;;;;;;5053670;28;20033;-76
2022/02/19 12:54:54;;;;;;;5.28;1.20;;;10.60;53.00;;;;;;5054374;28;20138;-77
2022/02/19 12:57:21;;;;;;;5.13;1.10;;;10.70;53.10;;;;;;5060513;28;20506;-78
2022/02/19 12:59:52;;;;;;;4.45;0.90;;;11.00;52.20;;;;;;5054960;28;20086;-78
2022/02/19 13:02:25;;;;;;;5.75;1.10;;;11.00;52.10;;;;;;5054269;28;20028;-76